sensor_id;sensor_type;location;lat;lon;timestamp;P1;durP1;ratioP1;P2;durP2;ratioP2
39276;SDS011;63149;48.086;-1.606;2023-03-01T06:02:28;34.40;;;20.30;;
39276;SDS011;63149;48.086;-1.606;2023-03-01T06:04:55;38.83;;;22.48;;
39276;SDS011;63149;48.086;-1.606;2023-03-01T06:07:22;39.00;;;21.85;;
39276;SDS011;63149;48.086;-1.606;2023-03-01T06:09:49;40.72;;;22.98;;
39276;SDS011;63149;48.086;-1.606;2023-03-01T06:12:16;37.20;;;21.75;;
39276;SDS011;63149;48.086;-1.606;2023-03-01T06:14:44;39.70;;;22.67;;
39276;SDS011;63149;48.086;-1.606;2023-03-01T06:17:12;38.15;;;21.27;;
39276;SDS011;63149;48.086;-1.606;2023-03-01T06:19:40;39.70;;;22.77;;
39276;SDS011;63149;48.086;-1.606;2023-03-01T06:22:07;36.50;;;21.52;;
39276;SDS011;63149;48.086;-1.606;2023-03-01T06:24:34;36.13;;;21.00;;
39276;SDS011;63149;48.086;-1.606;2023-03-01T06:27:01;40.67;;;23.90;;
39276;SDS011;63149;48.086;-1.606;2023-03-01T06:29:28;38.50;;;22.08;;
39276;SDS011;63149;48.086;-1.606;2023-03-01T06:31:55;34.60;;;21.55;;
39276;SDS011;63149;48.086;-1.606;2023-03-01T06:34:22;39.58;;;22.75;;
39276;SDS011;63149;48.086;-1.606;2023-03-01T06:36:50;40.33;;;22.27;;
39276;SDS011;63149;48.086;-1.606;2023-03-01T06:39:17;43.63;;;23.25;;
39276;SDS011;63149;48.086;-1.606;2023-03-01T06:41:44;38.83;;;21.77;;
39276;SDS011;63149;48.086;-1.606;2023-03-01T06:44:11;39.95;;;21.60;;
39276;SDS011;63149;48.086;-1.606;2023-03-01T06:46:38;36.17;;;20.92;;
39276;SDS011;63149;48.086;-1.606;2023-03-01T06:49:05;40.58;;;22.73;;
39276;SDS011;63149;48.086;-1.606;2023-03-01T06:51:34;34.53;;;20.77;;
39276;SDS011;63149;48.086;-1.606;2023-03-01T06:54:05;44.35;;;22.90;;
39276;SDS011;63149;48.086;-1.606;2023-03-01T06:56:32;37.03;;;21.00;;
39276;SDS011;63149;48.086;-1.606;2023-03-01T06:58:59;39.13;;;21.00;;
39276;SDS011;63149;48.086;-1.606;2023-03-01T07:01:26;37.80;;;20.50;;
39276;SDS011;63149;48.086;-1.606;2023-03-01T07:03:53;39.83;;;20.92;;
39276;SDS011;63149;48.086;-1.606;2023-03-01T07:06:20;39.58;;;21.40;;
39276;SDS011;63149;48.086;-1.606;2023-03-01T07:08:47;35.28;;;21.52;;
39276;SDS011;63149;48.086;-1.606;2023-03-01T07:11:15;36.83;;;21.05;;
39276;SDS011;63149;48.086;-1.606;2023-03-01T07:13:42;40.28;;;21.73;;
39276;SDS011;63149;48.086;-1.606;2023-03-01T07:16:09;38.55;;;21.00;;
39276;SDS011;63149;48.086;-1.606;2023-03-01T07:18:36;36.83;;;21.05;;
39276;SDS011;63149;48.086;-1.606;2023-03-01T07:21:04;34.55;;;20.77;;
39276;SDS011;63149;48.086;-1.606;2023-03-01T07:23:31;34.22;;;20.33;;
39276;SDS011;63149;48.086;-1.606;2023-03-01T07:25:58;42.50;;;22.63;;
39276;SDS011;63149;48.086;-1.606;2023-03-01T07:28:27;37.65;;;21.15;;
39276;SDS011;63149;48.086;-1.606;2023-03-01T07:30:55;33.42;;;20.65;;
39276;SDS011;63149;48.086;-1.606;2023-03-01T07:33:27;38.80;;;21.42;;
39276;SDS011;63149;48.086;-1.606;2023-03-01T07:35:57;35.03;;;19.95;;
39276;SDS011;63149;48.086;-1.606;2023-03-01T07:38:25;34.47;;;19.98;;
39276;SDS011;63149;48.086;-1.606;2023-03-01T07:40:52;35.70;;;21.35;;
39276;SDS011;63149;48.086;-1.606;2023-03-01T07:43:19;32.13;;;19.08;;
39276;SDS011;63149;48.086;-1.606;2023-03-01T07:45:48;30.60;;;18.00;;
39276;SDS011;63149;48.086;-1.606;2023-03-01T07:48:14;33.80;;;20.67;;
39276;SDS011;63149;48.086;-1.606;2023-03-01T07:50:41;34.08;;;19.70;;
39276;SDS011;63149;48.086;-1.606;2023-03-01T07:53:08;37.50;;;20.25;;
39276;SDS011;63149;48.086;-1.606;2023-03-01T07:55:35;36.65;;;20.83;;
39276;SDS011;63149;48.086;-1.606;2023-03-01T07:58:02;36.80;;;20.65;;
39276;SDS011;63149;48.086;-1.606;2023-03-01T08:00:30;35.13;;;19.65;;
39276;SDS011;63149;48.086;-1.606;2023-03-01T08:02:59;35.55;;;19.27;;
39276;SDS011;63149;48.086;-1.606;2023-03-01T08:05:27;35.70;;;20.20;;
39276;SDS011;63149;48.086;-1.606;2023-03-01T08:07:54;34.85;;;19.05;;
39276;SDS011;63149;48.086;-1.606;2023-03-01T08:10:21;31.77;;;18.42;;
39276;SDS011;63149;48.086;-1.606;2023-03-01T08:12:48;29.17;;;18.08;;
39276;SDS011;63149;48.086;-1.606;2023-03-01T08:15:17;30.73;;;17.58;;
39276;SDS011;63149;48.086;-1.606;2023-03-01T08:17:44;27.58;;;16.52;;
39276;SDS011;63149;48.086;-1.606;2023-03-01T08:20:13;29.70;;;18.00;;
39276;SDS011;63149;48.086;-1.606;2023-03-01T08:22:40;31.27;;;17.67;;
39276;SDS011;63149;48.086;-1.606;2023-03-01T08:25:07;30.58;;;17.52;;
39276;SDS011;63149;48.086;-1.606;2023-03-01T08:27:35;31.65;;;17.42;;
39276;SDS011;63149;48.086;-1.606;2023-03-01T08:30:02;28.38;;;17.27;;
39276;SDS011;63149;48.086;-1.606;2023-03-01T08:32:29;35.88;;;17.30;;
39276;SDS011;63149;48.086;-1.606;2023-03-01T08:34:56;30.48;;;17.30;;
39276;SDS011;63149;48.086;-1.606;2023-03-01T08:37:24;33.65;;;18.73;;
39276;SDS011;63149;48.086;-1.606;2023-03-01T08:39:52;27.95;;;17.08;;
39276;SDS011;63149;48.086;-1.606;2023-03-01T08:42:19;31.27;;;17.77;;
39276;SDS011;63149;48.086;-1.606;2023-03-01T08:44:46;26.08;;;16.23;;
39276;SDS011;63149;48.086;-1.606;2023-03-01T08:47:13;28.88;;;17.02;;
39276;SDS011;63149;48.086;-1.606;2023-03-01T08:49:40;26.83;;;16.60;;
39276;SDS011;63149;48.086;-1.606;2023-03-01T08:52:07;29.02;;;17.27;;
39276;SDS011;63149;48.086;-1.606;2023-03-01T08:54:35;28.48;;;16.48;;
39276;SDS011;63149;48.086;-1.606;2023-03-01T08:57:02;24.95;;;15.30;;
39276;SDS011;63149;48.086;-1.606;2023-03-01T08:59:29;26.77;;;15.60;;
39276;SDS011;63149;48.086;-1.606;2023-03-01T09:02:02;26.85;;;15.60;;
39276;SDS011;63149;48.086;-1.606;2023-03-01T09:04:29;27.17;;;15.98;;
39276;SDS011;63149;48.086;-1.606;2023-03-01T09:06:56;29.05;;;15.82;;
39276;SDS011;63149;48.086;-1.606;2023-03-01T09:09:23;25.27;;;15.23;;
39276;SDS011;63149;48.086;-1.606;2023-03-01T09:11:51;28.25;;;15.65;;
39276;SDS011;63149;48.086;-1.606;2023-03-01T09:14:18;28.08;;;15.90;;
39276;SDS011;63149;48.086;-1.606;2023-03-01T09:16:45;26.83;;;17.10;;
39276;SDS011;63149;48.086;-1.606;2023-03-01T09:19:12;25.35;;;15.25;;
39276;SDS011;63149;48.086;-1.606;2023-03-01T09:21:39;25.67;;;16.95;;
39276;SDS011;63149;48.086;-1.606;2023-03-01T09:24:17;25.95;;;15.20;;
39276;SDS011;63149;48.086;-1.606;2023-03-01T09:26:46;25.40;;;15.45;;
39276;SDS011;63149;48.086;-1.606;2023-03-01T09:29:15;23.65;;;16.48;;
39276;SDS011;63149;48.086;-1.606;2023-03-01T09:31:42;26.13;;;16.23;;
39276;SDS011;63149;48.086;-1.606;2023-03-01T09:34:09;23.17;;;15.38;;
39276;SDS011;63149;48.086;-1.606;2023-03-01T09:36:36;21.35;;;14.52;;
39276;SDS011;63149;48.086;-1.606;2023-03-01T09:39:04;22.55;;;13.55;;
39276;SDS011;63149;48.086;-1.606;2023-03-01T09:41:37;24.13;;;15.65;;
39276;SDS011;63149;48.086;-1.606;2023-03-01T09:44:13;22.98;;;15.43;;
39276;SDS011;63149;48.086;-1.606;2023-03-01T09:46:59;20.00;;;14.32;;
39276;SDS011;63149;48.086;-1.606;2023-03-01T09:49:27;23.10;;;15.05;;
39276;SDS011;63149;48.086;-1.606;2023-03-01T09:51:58;20.80;;;14.45;;
39276;SDS011;63149;48.086;-1.606;2023-03-01T09:54:29;18.63;;;13.82;;
39276;SDS011;63149;48.086;-1.606;2023-03-01T09:56:59;18.40;;;14.40;;
39276;SDS011;63149;48.086;-1.606;2023-03-01T09:59:39;20.75;;;14.15;;
39276;SDS011;63149;48.086;-1.606;2023-03-01T10:02:26;20.05;;;13.85;;
39276;SDS011;63149;48.086;-1.606;2023-03-01T10:04:58;19.50;;;14.55;;
39276;SDS011;63149;48.086;-1.606;2023-03-01T10:07:37;18.95;;;14.40;;
39276;SDS011;63149;48.086;-1.606;2023-03-01T10:10:23;20.15;;;13.80;;
39276;SDS011;63149;48.086;-1.606;2023-03-01T10:12:54;23.13;;;15.32;;
39276;SDS011;63149;48.086;-1.606;2023-03-01T10:15:25;22.38;;;15.52;;
39276;SDS011;63149;48.086;-1.606;2023-03-01T10:18:02;22.40;;;14.27;;
39276;SDS011;63149;48.086;-1.606;2023-03-01T10:20:33;20.05;;;13.88;;
39276;SDS011;63149;48.086;-1.606;2023-03-01T10:23:09;18.20;;;12.88;;
39276;SDS011;63149;48.086;-1.606;2023-03-01T10:25:41;18.83;;;13.55;;
39276;SDS011;63149;48.086;-1.606;2023-03-01T10:28:17;22.02;;;14.20;;
39276;SDS011;63149;48.086;-1.606;2023-03-01T10:30:50;20.45;;;13.43;;
39276;SDS011;63149;48.086;-1.606;2023-03-01T10:33:20;22.75;;;14.98;;
39276;SDS011;63149;48.086;-1.606;2023-03-01T10:35:51;20.42;;;14.82;;
39276;SDS011;63149;48.086;-1.606;2023-03-01T10:38:18;20.00;;;14.07;;
39276;SDS011;63149;48.086;-1.606;2023-03-01T10:40:51;18.83;;;13.52;;
39276;SDS011;63149;48.086;-1.606;2023-03-01T10:43:20;22.65;;;14.27;;
39276;SDS011;63149;48.086;-1.606;2023-03-01T10:45:47;20.40;;;13.60;;
39276;SDS011;63149;48.086;-1.606;2023-03-01T10:48:15;18.42;;;13.00;;
39276;SDS011;63149;48.086;-1.606;2023-03-01T10:50:46;18.40;;;13.00;;
39276;SDS011;63149;48.086;-1.606;2023-03-01T10:56:01;18.08;;;12.93;;
39276;SDS011;63149;48.086;-1.606;2023-03-01T10:58:30;18.17;;;13.15;;
39276;SDS011;63149;48.086;-1.606;2023-03-01T11:00:58;21.20;;;13.95;;
39276;SDS011;63149;48.086;-1.606;2023-03-01T11:03:26;18.75;;;13.30;;
39276;SDS011;63149;48.086;-1.606;2023-03-01T11:06:01;21.02;;;14.23;;
39276;SDS011;63149;48.086;-1.606;2023-03-01T11:08:37;20.23;;;13.10;;
39276;SDS011;63149;48.086;-1.606;2023-03-01T11:11:10;18.13;;;12.93;;
39276;SDS011;63149;48.086;-1.606;2023-03-01T11:13:53;19.70;;;14.23;;
39276;SDS011;63149;48.086;-1.606;2023-03-01T11:16:26;20.65;;;14.10;;
39276;SDS011;63149;48.086;-1.606;2023-03-01T11:19:19;18.67;;;14.68;;
39276;SDS011;63149;48.086;-1.606;2023-03-01T11:21:52;21.60;;;15.10;;
39276;SDS011;63149;48.086;-1.606;2023-03-01T11:24:25;19.60;;;14.60;;
39276;SDS011;63149;48.086;-1.606;2023-03-01T11:26:56;20.70;;;15.13;;
39276;SDS011;63149;48.086;-1.606;2023-03-01T11:29:30;21.25;;;15.30;;
39276;SDS011;63149;48.086;-1.606;2023-03-01T11:32:03;22.98;;;16.10;;
39276;SDS011;63149;48.086;-1.606;2023-03-01T11:34:37;22.98;;;14.75;;
39276;SDS011;63149;48.086;-1.606;2023-03-01T11:37:12;20.75;;;15.82;;
39276;SDS011;63149;48.086;-1.606;2023-03-01T11:39:51;19.58;;;15.05;;
39276;SDS011;63149;48.086;-1.606;2023-03-01T11:42:28;23.90;;;16.25;;
39276;SDS011;63149;48.086;-1.606;2023-03-01T11:45:06;20.20;;;15.95;;
39276;SDS011;63149;48.086;-1.606;2023-03-01T11:50:15;21.33;;;15.48;;
39276;SDS011;63149;48.086;-1.606;2023-03-01T11:52:56;22.38;;;14.32;;
39276;SDS011;63149;48.086;-1.606;2023-03-01T11:55:34;18.90;;;13.95;;
39276;SDS011;63149;48.086;-1.606;2023-03-01T11:58:23;18.30;;;13.93;;
39276;SDS011;63149;48.086;-1.606;2023-03-01T12:01:03;18.15;;;15.18;;
39276;SDS011;63149;48.086;-1.606;2023-03-01T12:06:40;19.67;;;14.48;;
39276;SDS011;63149;48.086;-1.606;2023-03-01T12:09:33;20.80;;;14.48;;
39276;SDS011;63149;48.086;-1.606;2023-03-01T12:15:00;19.10;;;14.52;;
39276;SDS011;63149;48.086;-1.606;2023-03-01T12:17:59;23.20;;;15.47;;
39276;SDS011;63149;48.086;-1.606;2023-03-01T12:20:51;21.17;;;14.98;;
39276;SDS011;63149;48.086;-1.606;2023-03-01T12:23:38;17.25;;;14.60;;
39276;SDS011;63149;48.086;-1.606;2023-03-01T12:26:29;20.52;;;14.82;;
39276;SDS011;63149;48.086;-1.606;2023-03-01T12:29:10;19.15;;;14.75;;
39276;SDS011;63149;48.086;-1.606;2023-03-01T12:31:49;20.95;;;15.43;;
39276;SDS011;63149;48.086;-1.606;2023-03-01T12:37:33;19.17;;;14.05;;
39276;SDS011;63149;48.086;-1.606;2023-03-01T12:40:15;18.55;;;14.98;;
39276;SDS011;63149;48.086;-1.606;2023-03-01T12:43:10;17.92;;;14.25;;
39276;SDS011;63149;48.086;-1.606;2023-03-01T12:45:49;18.92;;;14.00;;
39276;SDS011;63149;48.086;-1.606;2023-03-01T12:48:25;16.92;;;13.23;;
39276;SDS011;63149;48.086;-1.606;2023-03-01T12:51:05;20.90;;;12.70;;
39276;SDS011;63149;48.086;-1.606;2023-03-01T12:53:36;17.63;;;13.52;;
39276;SDS011;63149;48.086;-1.606;2023-03-01T12:56:06;16.23;;;12.73;;
39276;SDS011;63149;48.086;-1.606;2023-03-01T12:58:39;17.40;;;13.57;;
39276;SDS011;63149;48.086;-1.606;2023-03-01T13:01:19;14.68;;;11.80;;
39276;SDS011;63149;48.086;-1.606;2023-03-01T13:03:57;16.38;;;11.63;;
39276;SDS011;63149;48.086;-1.606;2023-03-01T13:06:44;13.90;;;11.45;;
39276;SDS011;63149;48.086;-1.606;2023-03-01T13:09:22;14.85;;;11.45;;
39276;SDS011;63149;48.086;-1.606;2023-03-01T13:11:55;13.52;;;11.85;;
39276;SDS011;63149;48.086;-1.606;2023-03-01T13:14:36;16.52;;;10.95;;
39276;SDS011;63149;48.086;-1.606;2023-03-01T13:19:56;12.07;;;9.05;;
39276;SDS011;63149;48.086;-1.606;2023-03-01T13:22:25;14.65;;;10.75;;
39276;SDS011;63149;48.086;-1.606;2023-03-01T13:25:00;16.25;;;10.38;;
39276;SDS011;63149;48.086;-1.606;2023-03-01T13:27:28;11.90;;;10.13;;
39276;SDS011;63149;48.086;-1.606;2023-03-01T13:29:58;12.52;;;9.70;;
39276;SDS011;63149;48.086;-1.606;2023-03-01T13:32:31;13.30;;;10.40;;
39276;SDS011;63149;48.086;-1.606;2023-03-01T13:35:03;13.55;;;10.43;;
39276;SDS011;63149;48.086;-1.606;2023-03-01T13:37:50;12.90;;;10.07;;
39276;SDS011;63149;48.086;-1.606;2023-03-01T13:43:29;11.85;;;9.00;;
39276;SDS011;63149;48.086;-1.606;2023-03-01T13:45:59;12.55;;;9.68;;
39276;SDS011;63149;48.086;-1.606;2023-03-01T13:48:28;15.15;;;10.90;;
39276;SDS011;63149;48.086;-1.606;2023-03-01T13:50:57;15.60;;;11.40;;
39276;SDS011;63149;48.086;-1.606;2023-03-01T13:53:27;15.57;;;10.95;;
39276;SDS011;63149;48.086;-1.606;2023-03-01T13:55:58;14.25;;;10.40;;
39276;SDS011;63149;48.086;-1.606;2023-03-01T13:58:29;13.23;;;9.05;;
39276;SDS011;63149;48.086;-1.606;2023-03-01T14:00:59;12.07;;;9.05;;
39276;SDS011;63149;48.086;-1.606;2023-03-01T14:03:28;11.43;;;9.07;;
39276;SDS011;63149;48.086;-1.606;2023-03-01T14:05:57;15.55;;;9.30;;
39276;SDS011;63149;48.086;-1.606;2023-03-01T14:08:27;11.63;;;8.57;;
39276;SDS011;63149;48.086;-1.606;2023-03-01T14:11:09;12.60;;;9.40;;
39276;SDS011;63149;48.086;-1.606;2023-03-01T14:13:59;12.88;;;9.27;;
39276;SDS011;63149;48.086;-1.606;2023-03-01T14:16:44;12.00;;;8.63;;
39276;SDS011;63149;48.086;-1.606;2023-03-01T14:19:19;11.55;;;8.40;;
39276;SDS011;63149;48.086;-1.606;2023-03-01T14:21:57;11.15;;;8.30;;
39276;SDS011;63149;48.086;-1.606;2023-03-01T14:24:27;10.80;;;8.27;;
39276;SDS011;63149;48.086;-1.606;2023-03-01T14:26:55;14.90;;;8.95;;
39276;SDS011;63149;48.086;-1.606;2023-03-01T14:29:26;11.63;;;9.27;;
39276;SDS011;63149;48.086;-1.606;2023-03-01T14:31:55;12.50;;;8.68;;
39276;SDS011;63149;48.086;-1.606;2023-03-01T14:34:35;11.38;;;8.25;;
39276;SDS011;63149;48.086;-1.606;2023-03-01T14:37:09;11.85;;;7.85;;
39276;SDS011;63149;48.086;-1.606;2023-03-01T14:39:37;9.82;;;7.55;;
39276;SDS011;63149;48.086;-1.606;2023-03-01T14:42:04;11.93;;;7.90;;
39276;SDS011;63149;48.086;-1.606;2023-03-01T14:44:31;9.60;;;6.50;;
39276;SDS011;63149;48.086;-1.606;2023-03-01T14:47:04;10.05;;;8.15;;
39276;SDS011;63149;48.086;-1.606;2023-03-01T14:49:31;12.48;;;8.45;;
39276;SDS011;63149;48.086;-1.606;2023-03-01T14:52:02;12.48;;;7.93;;
39276;SDS011;63149;48.086;-1.606;2023-03-01T14:54:32;13.73;;;8.20;;
39276;SDS011;63149;48.086;-1.606;2023-03-01T14:57:12;14.13;;;8.38;;
39276;SDS011;63149;48.086;-1.606;2023-03-01T14:59:42;12.95;;;8.43;;
39276;SDS011;63149;48.086;-1.606;2023-03-01T15:02:11;12.80;;;8.35;;
39276;SDS011;63149;48.086;-1.606;2023-03-01T15:04:42;18.10;;;9.93;;
39276;SDS011;63149;48.086;-1.606;2023-03-01T15:07:11;15.70;;;10.30;;
39276;SDS011;63149;48.086;-1.606;2023-03-01T15:09:40;14.13;;;10.35;;
39276;SDS011;63149;48.086;-1.606;2023-03-01T15:18:00;15.07;;;11.45;;
39276;SDS011;63149;48.086;-1.606;2023-03-01T15:20:30;14.77;;;10.68;;
39276;SDS011;63149;48.086;-1.606;2023-03-01T15:23:00;15.82;;;11.15;;
39276;SDS011;63149;48.086;-1.606;2023-03-01T15:25:28;19.33;;;11.88;;
39276;SDS011;63149;48.086;-1.606;2023-03-01T15:27:56;21.52;;;12.15;;
39276;SDS011;63149;48.086;-1.606;2023-03-01T15:30:26;17.15;;;12.32;;
39276;SDS011;63149;48.086;-1.606;2023-03-01T15:36:31;18.48;;;13.15;;
39276;SDS011;63149;48.086;-1.606;2023-03-01T15:39:04;16.63;;;12.75;;
39276;SDS011;63149;48.086;-1.606;2023-03-01T15:41:36;20.50;;;13.18;;
39276;SDS011;63149;48.086;-1.606;2023-03-01T15:44:15;19.10;;;12.73;;
39276;SDS011;63149;48.086;-1.606;2023-03-01T15:49:21;20.55;;;14.20;;
39276;SDS011;63149;48.086;-1.606;2023-03-01T15:51:56;20.58;;;13.52;;
39276;SDS011;63149;48.086;-1.606;2023-03-01T15:54:24;21.83;;;13.55;;
39276;SDS011;63149;48.086;-1.606;2023-03-01T15:56:53;18.80;;;13.70;;
39276;SDS011;63149;48.086;-1.606;2023-03-01T15:59:20;19.23;;;13.45;;
39276;SDS011;63149;48.086;-1.606;2023-03-01T16:01:47;20.55;;;14.15;;
39276;SDS011;63149;48.086;-1.606;2023-03-01T16:04:15;19.80;;;13.98;;
39276;SDS011;63149;48.086;-1.606;2023-03-01T16:06:49;22.00;;;14.57;;
39276;SDS011;63149;48.086;-1.606;2023-03-01T16:09:21;21.20;;;14.77;;
39276;SDS011;63149;48.086;-1.606;2023-03-01T16:11:48;21.73;;;15.48;;
39276;SDS011;63149;48.086;-1.606;2023-03-01T16:14:15;24.08;;;15.43;;
39276;SDS011;63149;48.086;-1.606;2023-03-01T16:16:42;27.90;;;17.45;;
39276;SDS011;63149;48.086;-1.606;2023-03-01T16:19:10;26.45;;;16.73;;
39276;SDS011;63149;48.086;-1.606;2023-03-01T16:21:37;21.52;;;15.95;;
39276;SDS011;63149;48.086;-1.606;2023-03-01T16:24:06;24.27;;;15.07;;
39276;SDS011;63149;48.086;-1.606;2023-03-01T16:26:34;21.58;;;14.73;;
39276;SDS011;63149;48.086;-1.606;2023-03-01T16:29:02;21.10;;;14.82;;
39276;SDS011;63149;48.086;-1.606;2023-03-01T16:31:29;24.20;;;15.38;;
39276;SDS011;63149;48.086;-1.606;2023-03-01T16:33:56;18.83;;;15.20;;
39276;SDS011;63149;48.086;-1.606;2023-03-01T16:36:25;22.83;;;15.75;;
39276;SDS011;63149;48.086;-1.606;2023-03-01T16:38:53;22.15;;;14.50;;
39276;SDS011;63149;48.086;-1.606;2023-03-01T16:41:22;21.65;;;15.30;;
39276;SDS011;63149;48.086;-1.606;2023-03-01T16:43:50;20.30;;;13.90;;
39276;SDS011;63149;48.086;-1.606;2023-03-01T16:46:18;20.70;;;13.52;;
39276;SDS011;63149;48.086;-1.606;2023-03-01T16:48:47;24.02;;;15.35;;
39276;SDS011;63149;48.086;-1.606;2023-03-01T16:51:14;21.17;;;14.05;;
39276;SDS011;63149;48.086;-1.606;2023-03-01T16:53:41;21.48;;;14.13;;
39276;SDS011;63149;48.086;-1.606;2023-03-01T16:56:11;24.10;;;14.05;;
39276;SDS011;63149;48.086;-1.606;2023-03-01T16:58:40;21.25;;;13.43;;
39276;SDS011;63149;48.086;-1.606;2023-03-01T17:01:08;18.55;;;13.10;;
39276;SDS011;63149;48.086;-1.606;2023-03-01T17:03:37;21.65;;;13.70;;
39276;SDS011;63149;48.086;-1.606;2023-03-01T17:06:05;19.45;;;12.85;;
39276;SDS011;63149;48.086;-1.606;2023-03-01T17:08:34;20.65;;;13.30;;
39276;SDS011;63149;48.086;-1.606;2023-03-01T17:11:02;23.50;;;12.88;;
39276;SDS011;63149;48.086;-1.606;2023-03-01T17:13:30;22.98;;;14.15;;
39276;SDS011;63149;48.086;-1.606;2023-03-01T17:15:58;22.17;;;14.68;;
39276;SDS011;63149;48.086;-1.606;2023-03-01T17:18:25;15.40;;;11.75;;
39276;SDS011;63149;48.086;-1.606;2023-03-01T17:20:52;16.55;;;12.48;;
39276;SDS011;63149;48.086;-1.606;2023-03-01T17:23:19;20.17;;;13.88;;
39276;SDS011;63149;48.086;-1.606;2023-03-01T17:25:47;20.02;;;13.25;;
39276;SDS011;63149;48.086;-1.606;2023-03-01T17:28:14;19.55;;;13.52;;
39276;SDS011;63149;48.086;-1.606;2023-03-01T17:30:41;20.70;;;14.20;;
39276;SDS011;63149;48.086;-1.606;2023-03-01T17:33:11;24.98;;;14.55;;
39276;SDS011;63149;48.086;-1.606;2023-03-01T17:35:38;19.85;;;13.32;;
39276;SDS011;63149;48.086;-1.606;2023-03-01T17:38:05;18.08;;;13.55;;
39276;SDS011;63149;48.086;-1.606;2023-03-01T17:40:32;20.15;;;13.70;;
39276;SDS011;63149;48.086;-1.606;2023-03-01T17:43:00;18.67;;;13.93;;
39276;SDS011;63149;48.086;-1.606;2023-03-01T17:45:28;22.73;;;13.13;;
39276;SDS011;63149;48.086;-1.606;2023-03-01T17:47:55;19.40;;;13.48;;
39276;SDS011;63149;48.086;-1.606;2023-03-01T17:50:23;20.77;;;13.35;;
39276;SDS011;63149;48.086;-1.606;2023-03-01T17:52:50;20.02;;;13.38;;
39276;SDS011;63149;48.086;-1.606;2023-03-01T17:55:17;22.92;;;12.80;;
39276;SDS011;63149;48.086;-1.606;2023-03-01T17:57:44;23.70;;;12.88;;
39276;SDS011;63149;48.086;-1.606;2023-03-01T18:00:11;20.48;;;12.63;;
39276;SDS011;63149;48.086;-1.606;2023-03-01T18:02:40;23.67;;;13.20;;
39276;SDS011;63149;48.086;-1.606;2023-03-01T18:05:08;16.08;;;12.18;;
39276;SDS011;63149;48.086;-1.606;2023-03-01T18:07:37;21.35;;;11.27;;
39276;SDS011;63149;48.086;-1.606;2023-03-01T18:10:04;19.75;;;11.63;;
39276;SDS011;63149;48.086;-1.606;2023-03-01T18:12:31;14.73;;;10.63;;
39276;SDS011;63149;48.086;-1.606;2023-03-01T18:14:58;20.42;;;11.07;;
39276;SDS011;63149;48.086;-1.606;2023-03-01T18:17:26;19.40;;;11.23;;
39276;SDS011;63149;48.086;-1.606;2023-03-01T18:19:53;16.67;;;10.82;;
39276;SDS011;63149;48.086;-1.606;2023-03-01T18:22:20;22.20;;;10.93;;
39276;SDS011;63149;48.086;-1.606;2023-03-01T18:24:49;16.83;;;11.23;;
39276;SDS011;63149;48.086;-1.606;2023-03-01T18:27:16;18.75;;;10.95;;
39276;SDS011;63149;48.086;-1.606;2023-03-01T18:29:43;16.23;;;10.95;;
39276;SDS011;63149;48.086;-1.606;2023-03-01T18:32:10;20.15;;;10.73;;
39276;SDS011;63149;48.086;-1.606;2023-03-01T18:34:37;19.35;;;11.10;;
39276;SDS011;63149;48.086;-1.606;2023-03-01T18:37:04;19.92;;;12.02;;
39276;SDS011;63149;48.086;-1.606;2023-03-01T18:39:31;19.63;;;11.88;;
39276;SDS011;63149;48.086;-1.606;2023-03-01T18:42:00;19.35;;;11.60;;
39276;SDS011;63149;48.086;-1.606;2023-03-01T18:44:27;17.23;;;11.30;;
39276;SDS011;63149;48.086;-1.606;2023-03-01T18:46:54;19.92;;;12.30;;
39276;SDS011;63149;48.086;-1.606;2023-03-01T18:49:22;19.23;;;12.13;;
39276;SDS011;63149;48.086;-1.606;2023-03-01T18:51:50;24.33;;;11.63;;
39276;SDS011;63149;48.086;-1.606;2023-03-01T18:54:17;18.58;;;10.63;;
39276;SDS011;63149;48.086;-1.606;2023-03-01T18:56:44;20.70;;;12.57;;
39276;SDS011;63149;48.086;-1.606;2023-03-01T18:59:12;17.85;;;12.13;;
39276;SDS011;63149;48.086;-1.606;2023-03-01T19:01:39;21.63;;;11.88;;
39276;SDS011;63149;48.086;-1.606;2023-03-01T19:04:07;21.15;;;12.63;;
39276;SDS011;63149;48.086;-1.606;2023-03-01T19:06:35;19.25;;;11.40;;
39276;SDS011;63149;48.086;-1.606;2023-03-01T19:09:03;21.23;;;11.95;;
39276;SDS011;63149;48.086;-1.606;2023-03-01T19:11:30;21.15;;;11.15;;
39276;SDS011;63149;48.086;-1.606;2023-03-01T19:13:58;19.23;;;11.50;;
39276;SDS011;63149;48.086;-1.606;2023-03-01T19:16:27;21.67;;;11.95;;
39276;SDS011;63149;48.086;-1.606;2023-03-01T19:18:55;20.00;;;11.43;;
39276;SDS011;63149;48.086;-1.606;2023-03-01T19:21:24;21.35;;;12.90;;
39276;SDS011;63149;48.086;-1.606;2023-03-01T19:23:54;21.08;;;11.73;;
39276;SDS011;63149;48.086;-1.606;2023-03-01T19:26:22;19.77;;;12.48;;
39276;SDS011;63149;48.086;-1.606;2023-03-01T19:28:50;25.02;;;12.88;;
39276;SDS011;63149;48.086;-1.606;2023-03-01T19:31:18;24.80;;;13.65;;
39276;SDS011;63149;48.086;-1.606;2023-03-01T19:33:49;22.27;;;13.27;;
39276;SDS011;63149;48.086;-1.606;2023-03-01T19:36:16;20.70;;;13.50;;
39276;SDS011;63149;48.086;-1.606;2023-03-01T19:38:45;23.45;;;13.27;;
39276;SDS011;63149;48.086;-1.606;2023-03-01T19:41:13;22.75;;;12.93;;
39276;SDS011;63149;48.086;-1.606;2023-03-01T19:43:42;21.40;;;12.02;;
39276;SDS011;63149;48.086;-1.606;2023-03-01T19:46:11;23.60;;;13.27;;
39276;SDS011;63149;48.086;-1.606;2023-03-01T19:48:39;21.67;;;12.48;;
39276;SDS011;63149;48.086;-1.606;2023-03-01T19:51:07;23.38;;;13.23;;
39276;SDS011;63149;48.086;-1.606;2023-03-01T19:53:35;22.70;;;14.30;;
39276;SDS011;63149;48.086;-1.606;2023-03-01T19:56:03;21.58;;;14.13;;
39276;SDS011;63149;48.086;-1.606;2023-03-01T19:58:31;23.05;;;13.38;;
39276;SDS011;63149;48.086;-1.606;2023-03-01T20:00:59;22.95;;;13.40;;
39276;SDS011;63149;48.086;-1.606;2023-03-01T20:03:26;21.23;;;13.73;;
39276;SDS011;63149;48.086;-1.606;2023-03-01T20:05:54;21.80;;;13.50;;
39276;SDS011;63149;48.086;-1.606;2023-03-01T20:08:24;20.45;;;13.10;;
39276;SDS011;63149;48.086;-1.606;2023-03-01T20:10:51;28.42;;;14.02;;
39276;SDS011;63149;48.086;-1.606;2023-03-01T20:13:18;21.48;;;13.13;;
39276;SDS011;63149;48.086;-1.606;2023-03-01T20:15:45;21.67;;;14.38;;
39276;SDS011;63149;48.086;-1.606;2023-03-01T20:18:12;27.15;;;14.32;;
39276;SDS011;63149;48.086;-1.606;2023-03-01T20:20:39;24.27;;;13.27;;
39276;SDS011;63149;48.086;-1.606;2023-03-01T20:23:06;26.50;;;13.93;;
39276;SDS011;63149;48.086;-1.606;2023-03-01T20:25:35;21.40;;;13.63;;
39276;SDS011;63149;48.086;-1.606;2023-03-01T20:28:01;22.90;;;14.43;;
39276;SDS011;63149;48.086;-1.606;2023-03-01T20:30:28;25.83;;;14.95;;
39276;SDS011;63149;48.086;-1.606;2023-03-01T20:32:55;26.70;;;14.13;;
39276;SDS011;63149;48.086;-1.606;2023-03-01T20:35:22;21.27;;;13.93;;
39276;SDS011;63149;48.086;-1.606;2023-03-01T20:37:50;20.42;;;13.85;;
39276;SDS011;63149;48.086;-1.606;2023-03-01T20:40:18;24.42;;;13.77;;
39276;SDS011;63149;48.086;-1.606;2023-03-01T20:42:52;25.50;;;13.88;;
39276;SDS011;63149;48.086;-1.606;2023-03-01T20:45:19;24.88;;;15.50;;
39276;SDS011;63149;48.086;-1.606;2023-03-01T20:47:46;20.85;;;13.65;;
39276;SDS011;63149;48.086;-1.606;2023-03-01T20:50:14;27.80;;;14.68;;
39276;SDS011;63149;48.086;-1.606;2023-03-01T20:52:42;26.52;;;14.63;;
39276;SDS011;63149;48.086;-1.606;2023-03-01T20:55:09;25.90;;;15.18;;
39276;SDS011;63149;48.086;-1.606;2023-03-01T20:57:36;26.30;;;14.68;;
39276;SDS011;63149;48.086;-1.606;2023-03-01T21:00:06;27.73;;;15.07;;
39276;SDS011;63149;48.086;-1.606;2023-03-01T21:02:34;27.85;;;15.55;;